createdAt,value
2018-11-10T00:00:31.118Z,28.1
2018-11-10T00:01:21.095Z,28.1
2018-11-10T00:02:10.737Z,28
2018-11-10T00:03:01.779Z,27.9
2018-11-10T00:04:42.186Z,27.8
2018-11-10T00:05:31.340Z,27.6
2018-11-10T00:06:22.521Z,27.6
2018-11-10T00:07:11.107Z,27.4
2018-11-10T00:25:23.706Z,28.9
2018-11-10T00:26:14.172Z,29.1
2018-11-10T00:27:03.068Z,29.3
2018-11-10T00:27:53.870Z,29.4
2018-11-10T00:28:43.102Z,29.5
2018-11-10T00:29:33.927Z,29.6
2018-11-10T00:30:23.962Z,29.7
2018-11-10T00:31:14.132Z,29.8
2018-11-10T00:32:03.620Z,29.8
2018-11-10T00:32:54.027Z,29.8
2018-11-10T00:33:43.665Z,29.8
2018-11-10T00:34:34.533Z,29.6
2018-11-10T00:35:23.717Z,29.4
2018-11-10T00:36:14.472Z,29.3
2018-11-10T00:37:03.939Z,29.1
2018-11-10T00:37:53.707Z,28.9
2018-11-10T00:38:44.239Z,28.8
2018-11-10T00:39:33.944Z,28.6
2018-11-10T00:40:24.272Z,28.4
2018-11-10T00:41:13.784Z,28.3
2018-11-10T00:42:04.567Z,28.2
2018-11-10T00:42:54.994Z,28.1
2018-11-10T00:43:44.483Z,28
2018-11-10T00:44:33.797Z,27.9
2018-11-10T00:45:24.041Z,27.9
2018-11-10T00:46:14.428Z,27.8
2018-11-10T00:47:04.411Z,27.6
2018-11-10T00:47:54.008Z,27.6
2018-11-10T00:48:45.777Z,27.5
2018-11-10T00:49:35.428Z,27.3
2018-11-10T00:50:25.079Z,27.2
2018-11-10T00:51:14.871Z,27.1
2018-11-10T00:52:05.336Z,27.1
2018-11-10T00:52:56.066Z,26.9
2018-11-10T00:53:44.693Z,26.9
2018-11-10T00:54:34.258Z,26.8
2018-11-10T00:55:25.986Z,27.3
2018-11-10T00:56:15.362Z,27.2
2018-11-10T00:57:05.891Z,27.1
2018-11-10T00:57:54.950Z,27.1
2018-11-10T00:58:47.396Z,27.1
2018-11-10T00:59:35.021Z,27.2
2018-11-10T01:00:26.118Z,27.4
2018-11-10T01:01:15.768Z,27.8
2018-11-10T01:02:06.138Z,27.9
2018-11-10T01:02:55.555Z,28.2
2018-11-10T01:03:46.120Z,28.4
2018-11-10T01:04:36.621Z,28.6
2018-11-10T01:05:25.964Z,28.7
2018-11-10T01:06:16.528Z,28.9
2018-11-10T01:07:05.915Z,29
2018-11-10T01:07:56.447Z,29.1
2018-11-10T01:08:45.772Z,29.3
2018-11-10T01:09:37.013Z,29.4
2018-11-10T01:10:26.950Z,29.5
2018-11-10T01:11:18.028Z,29.6
2018-11-10T01:12:06.410Z,29.7
2018-11-10T01:12:57.437Z,29.8
2018-11-10T01:13:46.108Z,29.8
2018-11-10T01:14:36.827Z,29.8
2018-11-10T01:15:27.738Z,29.8
2018-11-10T01:16:17.032Z,29.6
2018-11-10T01:17:06.577Z,29.4
2018-11-10T01:17:56.522Z,29.3
2018-11-10T01:18:47.174Z,29.1
2018-11-10T01:19:37.494Z,28.9
2018-11-10T01:20:27.144Z,28.8
2018-11-10T01:21:17.117Z,28.6
2018-11-10T01:22:06.962Z,28.4
2018-11-10T01:22:57.420Z,28.3
2018-11-10T01:23:47.157Z,28.2
2018-11-10T01:24:38.771Z,28.1
2018-11-10T01:25:28.209Z,28
2018-11-10T01:26:17.136Z,27.9
2018-11-10T01:27:59.493Z,27.7
2018-11-10T01:28:48.131Z,27.6
2018-11-10T01:29:37.966Z,27.6
2018-11-10T01:30:28.993Z,27.4
2018-11-10T01:31:17.647Z,27.3
2018-11-10T01:32:08.649Z,27.1
2018-11-10T01:32:58.907Z,27.1
2018-11-10T01:33:47.821Z,26.9
2018-11-10T01:34:38.218Z,26.9
2018-11-10T01:35:28.531Z,26.8
2018-11-10T01:36:18.913Z,27.2
2018-11-10T01:37:07.996Z,27.2
2018-11-10T01:37:59.209Z,27.1
2018-11-10T01:38:48.030Z,27.1
2018-11-10T01:39:38.691Z,27
2018-11-10T01:40:28.343Z,27.1
2018-11-10T01:41:19.640Z,27.3
2018-11-10T01:42:09.797Z,27.6
2018-11-10T01:43:48.592Z,28.1
2018-11-10T01:44:39.795Z,28.3
2018-11-10T01:45:29.780Z,28.4
2018-11-10T01:46:19.585Z,28.6
2018-11-10T01:47:09.202Z,28.8
2018-11-10T01:47:58.470Z,28.9
2018-11-10T01:48:49.825Z,29
2018-11-10T01:49:39.687Z,29.1
2018-11-10T01:50:29.305Z,29.3
2018-11-10T01:51:19.445Z,29.4
2018-11-10T01:52:09.511Z,29.4
2018-11-10T01:52:59.897Z,29.6
2018-11-10T01:53:50.175Z,29.6
2018-11-10T01:54:40.445Z,29.8
2018-11-10T01:55:29.827Z,29.8
2018-11-10T01:56:20.400Z,29.8
2018-11-10T01:57:10.552Z,29.8
2018-11-10T01:58:01.088Z,29.8
2018-11-10T01:58:50.576Z,29.6
2018-11-10T01:59:40.269Z,29.4
2018-11-10T02:00:29.477Z,29.3
2018-11-10T02:01:20.910Z,29.1
2018-11-10T02:02:11.380Z,28.9
2018-11-10T02:03:00.938Z,28.8
2018-11-10T02:03:51.159Z,28.6
2018-11-10T02:04:40.222Z,28.4
2018-11-10T02:05:30.724Z,28.3
2018-11-10T02:06:20.045Z,28.2
2018-11-10T02:07:10.152Z,28.1
2018-11-10T02:08:50.002Z,27.9
2018-11-10T02:10:29.899Z,27.7
2018-11-10T02:11:20.032Z,27.6
2018-11-10T02:12:11.911Z,27.5
2018-11-10T02:13:00.306Z,27.4
2018-11-10T02:13:50.399Z,27.3
2018-11-10T02:14:41.781Z,27.1
2018-11-10T02:15:31.824Z,27.1
2018-11-10T02:16:21.196Z,26.9
2018-11-10T02:17:10.288Z,26.9
2018-11-10T02:18:01.951Z,26.8
2018-11-10T02:18:51.758Z,27.3
2018-11-10T02:19:40.952Z,27.1
2018-11-10T02:20:31.676Z,27.1
2018-11-10T02:21:21.168Z,27.1
2018-11-10T02:22:12.241Z,27
2018-11-10T02:23:01.342Z,27.1
2018-11-10T02:23:52.203Z,27.3
2018-11-10T02:24:42.088Z,27.6
2018-11-10T02:26:21.618Z,28
2018-11-10T02:27:10.686Z,28.3
2018-11-10T02:28:02.684Z,28.4
2018-11-10T02:28:51.717Z,28.6
2018-11-10T02:29:42.581Z,28.7
2018-11-10T02:30:31.868Z,28.8
2018-11-10T02:31:23.026Z,28.8
2018-11-10T02:32:12.374Z,28.8
2018-11-10T02:33:03.296Z,28.6
2018-11-10T02:33:53.969Z,28.3
2018-11-10T02:34:42.475Z,28.1
2018-11-10T02:35:32.514Z,28
2018-11-10T02:36:22.496Z,28.3
2018-11-10T02:37:12.698Z,28
2018-11-10T02:38:03.280Z,27.6
2018-11-10T02:38:55.016Z,27.1
2018-11-10T02:39:42.940Z,26.9
2018-11-10T02:40:32.740Z,27
2018-11-10T02:41:23.265Z,27.3
2018-11-10T02:42:13.167Z,27.6
2018-11-10T02:43:53.397Z,28.1
2018-11-10T02:44:43.852Z,28.3
2018-11-10T02:45:32.826Z,28.4
2018-11-10T02:46:21.987Z,28.6
2018-11-10T02:47:12.969Z,28.8
2018-11-10T02:48:02.734Z,28.9
2018-11-10T02:48:54.567Z,29.1
2018-11-10T02:49:44.466Z,29.2
2018-11-10T02:50:34.630Z,29.3
2018-11-10T02:51:22.702Z,29.4
2018-11-10T02:52:14.637Z,29.5
2018-11-10T02:53:04.064Z,29.6
2018-11-10T02:53:54.277Z,29.8
2018-11-10T02:54:45.459Z,29.8
2018-11-10T02:55:34.114Z,29.8
2018-11-10T02:56:24.305Z,29.8
2018-11-10T02:57:13.902Z,29.7
2018-11-10T02:58:03.736Z,29.6
2018-11-10T02:58:54.659Z,29.4
2018-11-10T02:59:45.783Z,29.2
2018-11-10T03:00:34.695Z,29
2018-11-10T03:01:23.606Z,28.9
2018-11-10T03:02:14.313Z,28.7
2018-11-10T03:03:05.230Z,28.5
2018-11-10T03:03:55.668Z,28.4
2018-11-10T03:04:44.529Z,28.3
2018-11-10T03:05:35.669Z,28.1
2018-11-10T03:06:25.460Z,28
2018-11-10T03:07:14.946Z,27.9
2018-11-10T03:08:55.874Z,27.7
2018-11-10T03:09:45.931Z,27.6
2018-11-10T03:10:34.761Z,27.5
2018-11-10T03:11:25.030Z,27.4
2018-11-10T03:12:14.466Z,27.4
2018-11-10T03:13:05.269Z,27.2
2018-11-10T03:13:55.513Z,27.1
2018-11-10T03:14:46.570Z,26.9
2018-11-10T03:15:35.540Z,26.9
2018-11-10T03:16:26.287Z,26.8
2018-11-10T03:17:16.171Z,27
2018-11-10T03:18:05.745Z,27.2
2018-11-10T03:18:55.953Z,27.1
2018-11-10T03:19:45.393Z,27.1
2018-11-10T03:20:36.711Z,27
2018-11-10T03:21:26.263Z,27
2018-11-10T03:22:14.972Z,27.2
2018-11-10T03:23:06.843Z,27.4
2018-11-10T03:23:56.133Z,27.6
2018-11-10T03:24:46.766Z,27.9
2018-11-10T03:25:36.888Z,28.1
2018-11-10T03:26:26.125Z,28.3
2018-11-10T03:27:16.648Z,28.4
2018-11-10T03:28:05.600Z,28.6
2018-11-10T03:28:56.130Z,28.8
2018-11-10T03:29:46.305Z,28.9
2018-11-10T03:30:37.024Z,28.9
2018-11-10T03:31:26.824Z,29.1
2018-11-10T03:32:17.760Z,29.2
2018-11-10T03:33:05.562Z,29.3
2018-11-10T03:33:56.994Z,29.4
2018-11-10T03:34:46.764Z,29.5
2018-11-10T03:35:36.092Z,29.6
2018-11-10T03:36:28.474Z,29.7
2018-11-10T03:37:16.914Z,29.8
2018-11-10T03:38:07.261Z,29.8
2018-11-10T03:38:57.186Z,29.8
2018-11-10T03:39:46.066Z,29.9
2018-11-10T03:40:36.251Z,29.9
2018-11-10T03:41:25.982Z,29.8
2018-11-10T03:42:17.040Z,29.7
2018-11-10T03:43:07.393Z,29.5
2018-11-10T03:43:57.515Z,29.3
2018-11-10T03:44:48.240Z,29.1
2018-11-10T03:45:37.316Z,28.9
2018-11-10T03:46:27.602Z,28.8
2018-11-10T03:47:17.529Z,28.6
2018-11-10T03:48:07.601Z,28.4
2018-11-10T03:48:58.662Z,28.3
2018-11-10T03:49:48.418Z,28.2
2018-11-10T03:50:37.669Z,28.1
2018-11-10T03:51:28.261Z,28
2018-11-10T03:52:18.544Z,27.9
2018-11-10T03:53:58.976Z,27.7
2018-11-10T03:54:47.908Z,27.6
2018-11-10T03:55:38.105Z,27.5
2018-11-10T03:56:28.519Z,27.4
2018-11-10T03:57:18.653Z,27.3
2018-11-10T03:58:09.256Z,27.1
2018-11-10T03:58:58.823Z,27.1
2018-11-10T03:59:47.996Z,26.9
2018-11-10T04:00:38.385Z,26.8
2018-11-10T04:01:28.088Z,26.9
2018-11-10T04:02:19.607Z,27.3
2018-11-10T04:03:08.860Z,27.2
2018-11-10T04:03:58.818Z,27.1
2018-11-10T04:04:48.337Z,27.1
2018-11-10T04:05:38.957Z,27
2018-11-10T04:06:29.005Z,27.2
2018-11-10T04:07:18.781Z,27.4
2018-11-10T04:08:09.965Z,27.6
2018-11-10T04:08:59.510Z,27.9
2018-11-10T04:09:49.975Z,28.1
2018-11-10T04:10:40.364Z,28.3
2018-11-10T04:11:30.467Z,28.4
2018-11-10T04:12:20.482Z,28.6
2018-11-10T04:13:09.867Z,28.7
2018-11-10T04:13:59.867Z,28.8
2018-11-10T04:14:49.569Z,28.9
2018-11-10T04:15:40.752Z,29.1
2018-11-10T04:16:30.369Z,29.1
2018-11-10T04:17:20.604Z,29.3
2018-11-10T04:18:09.231Z,29.3
2018-11-10T04:19:00.459Z,29.4
2018-11-10T04:19:50.974Z,29.5
2018-11-10T04:20:40.493Z,29.6
2018-11-10T04:21:30.330Z,29.7
2018-11-10T04:22:19.857Z,29.7
2018-11-10T04:23:09.476Z,29.8
2018-11-10T04:24:00.329Z,29.8
2018-11-10T04:24:50.514Z,29.9
2018-11-10T04:25:41.964Z,29.9
2018-11-10T04:26:30.051Z,29.9
2018-11-10T04:27:20.102Z,29.9
2018-11-10T04:28:11.111Z,29.8
2018-11-10T04:29:00.719Z,29.6
2018-11-10T04:29:50.693Z,29.4
2018-11-10T04:30:41.344Z,29.3
2018-11-10T04:31:30.408Z,29.1
2018-11-10T04:32:21.332Z,28.9
2018-11-10T04:33:11.307Z,28.7
2018-11-10T04:34:00.646Z,28.6
2018-11-10T04:34:51.230Z,28.4
2018-11-10T04:35:42.451Z,28.3
2018-11-10T04:36:30.538Z,28.2
2018-11-10T04:54:38.269Z,27.6
2018-11-10T04:55:28.304Z,27.9
2018-11-10T04:56:18.780Z,28.1
2018-11-10T04:57:07.949Z,28.3
2018-11-10T04:57:59.012Z,28.4
2018-11-10T04:58:48.839Z,28.6
2018-11-10T04:59:38.632Z,28.6
2018-11-10T05:00:28.354Z,28.8
2018-11-10T05:01:18.305Z,28.9
2018-11-10T05:02:08.680Z,29
2018-11-10T05:02:59.520Z,29.1
2018-11-10T05:03:49.381Z,29.2
2018-11-10T05:04:38.562Z,29.3
2018-11-10T05:05:29.129Z,29.4
2018-11-10T05:06:19.297Z,29.4
2018-11-10T05:07:08.934Z,29.5
2018-11-10T05:07:59.106Z,29.6
2018-11-10T05:08:49.440Z,29.6
2018-11-10T05:09:39.673Z,29.7
2018-11-10T05:10:29.790Z,29.8
2018-11-10T05:11:18.941Z,29.8
2018-11-10T05:12:10.689Z,29.8
2018-11-10T05:12:59.859Z,29.9
2018-11-10T05:13:49.960Z,29.9
2018-11-10T05:14:39.981Z,29.9
2018-11-10T05:15:31.033Z,30
2018-11-10T05:16:19.900Z,30.1
2018-11-10T05:17:09.165Z,30.1
2018-11-10T05:18:00.203Z,30
2018-11-10T05:18:50.096Z,30
2018-11-10T05:19:40.210Z,29.8
2018-11-10T05:20:30.163Z,29.7
2018-11-10T05:21:19.728Z,29.5
2018-11-10T05:22:09.925Z,29.3
2018-11-10T05:23:00.048Z,29.1
2018-11-10T05:23:51.815Z,28.9
2018-11-10T05:24:40.698Z,28.7
2018-11-10T05:25:31.125Z,28.6
2018-11-10T05:26:20.448Z,28.4
2018-11-10T05:27:10.295Z,28.3
2018-11-10T05:27:59.965Z,28.1
2018-11-10T05:28:51.916Z,28.1
2018-11-10T05:29:40.177Z,27.9
2018-11-10T05:31:24.135Z,27.7
2018-11-10T05:32:11.232Z,27.6
2018-11-10T05:33:00.297Z,27.5
2018-11-10T05:33:51.979Z,27.4
2018-11-10T05:34:40.420Z,27.3
2018-11-10T05:35:32.639Z,27.2
2018-11-10T05:36:21.809Z,27.1
2018-11-10T05:37:12.076Z,27
2018-11-10T05:38:02.085Z,26.9
2018-11-10T05:38:51.863Z,26.8
2018-11-10T05:39:42.272Z,26.9
2018-11-10T05:40:31.984Z,27.3
2018-11-10T05:41:21.392Z,27.3
2018-11-10T05:42:11.929Z,27.2
2018-11-10T05:43:02.141Z,27.1
2018-11-10T05:43:51.212Z,27.1
2018-11-10T05:44:42.334Z,27.3
2018-11-10T05:45:32.122Z,27.4
2018-11-10T05:46:21.357Z,27.6
2018-11-10T05:48:02.614Z,28
2018-11-10T05:48:51.979Z,28.1
2018-11-10T05:49:42.521Z,28.3
2018-11-10T05:50:32.629Z,28.4
2018-11-10T05:51:22.724Z,28.6
2018-11-10T05:52:13.094Z,28.7
2018-11-10T05:53:03.212Z,28.8
2018-11-10T05:53:51.805Z,28.8
2018-11-10T05:54:42.223Z,28.9
2018-11-10T05:55:32.812Z,29
2018-11-10T05:56:23.221Z,28.9
2018-11-10T05:57:13.541Z,28.8
2018-11-10T05:58:02.761Z,28.6
2018-11-10T05:58:53.800Z,28.3
2018-11-10T05:59:43.298Z,28.1
2018-11-10T06:01:23.203Z,27.7
2018-11-10T06:02:13.878Z,28
2018-11-10T06:03:03.539Z,28.2
2018-11-10T06:03:53.785Z,27.7
2018-11-10T06:04:42.945Z,27.2
2018-11-10T06:05:32.776Z,26.8
2018-11-10T06:06:24.968Z,26.7
2018-11-10T06:07:13.363Z,26.8
2018-11-10T06:08:02.975Z,27.2
2018-11-10T06:08:52.636Z,27.5
2018-11-10T06:09:46.263Z,27.8
2018-11-10T06:10:36.840Z,28
2018-11-10T06:11:23.535Z,28.2
2018-11-10T06:12:12.754Z,28.4
2018-11-10T06:13:03.914Z,28.6
2018-11-10T06:13:54.407Z,28.7
2018-11-10T06:14:43.580Z,28.8
2018-11-10T06:15:33.232Z,28.9
2018-11-10T06:16:23.373Z,29.1
2018-11-10T06:17:14.385Z,29.2
2018-11-10T06:18:03.337Z,29.3
2018-11-10T06:18:56.364Z,29.3
2018-11-10T06:19:43.975Z,29.4
2018-11-10T06:20:34.545Z,29.3
2018-11-10T06:21:24.627Z,29.2
2018-11-10T06:22:15.226Z,29.1
2018-11-10T06:23:03.707Z,28.9
2018-11-10T06:23:54.706Z,28.7
2018-11-10T06:24:46.246Z,28.6
2018-11-10T06:25:35.164Z,28.4
2018-11-10T06:26:24.937Z,28.3
2018-11-10T06:27:15.617Z,28.1
2018-11-10T06:28:04.849Z,27.9
2018-11-10T06:28:57.109Z,27.9
2018-11-10T06:29:44.696Z,27.8
2018-11-10T06:30:35.778Z,27.7
2018-11-10T06:31:25.154Z,27.6
2018-11-10T06:32:15.691Z,27.5
2018-11-10T06:33:04.866Z,27.4
2018-11-10T06:33:56.452Z,27.4
2018-11-10T06:34:45.510Z,27.3
2018-11-10T06:35:35.661Z,27.2
2018-11-10T06:36:26.238Z,27.1
2018-11-10T06:37:16.269Z,27
2018-11-10T06:38:05.649Z,26.9
2018-11-10T06:38:56.324Z,26.8
2018-11-10T06:39:46.586Z,26.8
2018-11-10T06:40:36.381Z,26.7
2018-11-10T06:41:26.856Z,26.6
2018-11-10T06:42:17.063Z,26.5
2018-11-10T06:43:06.891Z,26.5
2018-11-10T06:43:55.928Z,26.4
2018-11-10T06:44:46.248Z,26.3
2018-11-10T06:45:36.588Z,26.3
2018-11-10T06:46:26.570Z,26.2
2018-11-10T06:47:18.329Z,26.2
2018-11-10T06:48:06.834Z,26.1
2018-11-10T06:48:54.801Z,26.1
2018-11-10T06:49:46.837Z,26
2018-11-10T06:50:37.543Z,25.9
2018-11-10T06:51:27.016Z,25.9
2018-11-10T06:52:17.211Z,25.8
2018-11-10T06:53:08.751Z,25.8
2018-11-10T06:53:57.179Z,25.8
2018-11-10T06:54:47.298Z,25.8
2018-11-10T06:55:37.114Z,25.7
2018-11-10T06:56:26.581Z,25.6
2018-11-10T06:57:17.613Z,25.6
2018-11-10T06:58:06.606Z,25.5
2018-11-10T06:58:57.654Z,25.4
2018-11-10T06:59:48.184Z,25.3
2018-11-10T07:00:36.590Z,25.2
2018-11-10T07:01:25.521Z,25.1
2018-11-10T07:02:16.144Z,25.1
2018-11-10T07:03:07.261Z,25.1
2018-11-10T07:03:57.755Z,25
2018-11-10T07:04:47.244Z,25
2018-11-10T07:05:38.077Z,24.9
2018-11-10T07:06:27.193Z,24.8
2018-11-10T07:07:17.673Z,24.8
2018-11-10T07:08:09.569Z,24.7
2018-11-10T07:08:58.004Z,24.6
2018-11-10T07:09:48.859Z,24.6
2018-11-10T07:10:37.294Z,24.6
2018-11-10T07:11:28.267Z,24.5
2018-11-10T07:12:17.994Z,24.4
2018-11-10T07:13:09.504Z,24.4
2018-11-10T07:13:58.864Z,24.4
2018-11-10T07:14:47.722Z,24.3
2018-11-10T07:15:39.024Z,24.3
2018-11-10T07:16:28.654Z,24.2
2018-11-10T07:17:19.719Z,24.2
2018-11-10T07:18:10.671Z,24.1
2018-11-10T07:19:00.159Z,24.1
2018-11-10T07:19:48.596Z,24.1
2018-11-10T07:20:39.056Z,24
2018-11-10T07:21:28.276Z,23.9
2018-11-10T07:22:18.397Z,23.9
2018-11-10T07:23:08.856Z,23.9
2018-11-10T07:23:59.110Z,23.9
2018-11-10T07:24:49.617Z,23.8
2018-11-10T07:25:40.088Z,23.8
2018-11-10T07:26:29.764Z,23.8
2018-11-10T07:27:19.027Z,23.8
2018-11-10T07:28:09.439Z,23.8
2018-11-10T07:28:58.915Z,23.7
2018-11-10T07:29:49.307Z,23.7
2018-11-10T07:30:39.359Z,23.6
2018-11-10T07:31:29.572Z,23.6
2018-11-10T07:32:18.835Z,23.6
2018-11-10T07:33:09.273Z,23.5
2018-11-10T07:33:58.662Z,23.5
2018-11-10T07:34:48.881Z,23.5
2018-11-10T07:35:39.504Z,23.4
2018-11-10T07:36:28.879Z,23.4
2018-11-10T07:37:19.197Z,23.4
2018-11-10T07:38:08.284Z,23.4
2018-11-10T07:39:00.067Z,23.3
2018-11-10T07:39:49.521Z,23.3
2018-11-10T07:40:40.726Z,23.3
2018-11-10T07:41:30.570Z,23.3
2018-11-10T07:42:20.231Z,23.3
2018-11-10T07:43:10.836Z,23.2
2018-11-10T07:44:00.311Z,23.2
2018-11-10T07:44:50.330Z,23.2
2018-11-10T07:45:40.161Z,23.2
2018-11-10T07:46:30.226Z,23.1
2018-11-10T07:47:20.576Z,23.1
2018-11-10T07:48:10.136Z,23.1
2018-11-10T07:49:00.225Z,23
2018-11-10T07:49:51.548Z,23
2018-11-10T07:50:40.483Z,23
2018-11-10T07:51:32.521Z,22.9
2018-11-10T07:52:20.028Z,23
2018-11-10T07:53:11.333Z,22.9
2018-11-10T07:54:01.623Z,22.9
2018-11-10T07:54:50.506Z,22.9
2018-11-10T07:55:41.773Z,22.8
2018-11-10T07:56:30.556Z,22.8
2018-11-10T07:57:21.753Z,22.8
2018-11-10T07:58:11.630Z,22.8
2018-11-10T07:59:01.543Z,22.8
2018-11-10T07:59:50.648Z,22.8
2018-11-10T08:00:41.727Z,22.8
2018-11-10T08:01:31.785Z,22.7
2018-11-10T08:02:21.567Z,22.7
2018-11-10T08:03:11.670Z,22.7
2018-11-10T08:04:02.596Z,22.6
2018-11-10T08:04:51.618Z,22.6
2018-11-10T08:05:43.420Z,22.6
2018-11-10T08:06:31.235Z,22.6
2018-11-10T08:07:21.200Z,22.6
2018-11-10T08:08:12.167Z,22.6
2018-11-10T08:09:02.104Z,22.5
2018-11-10T08:09:53.274Z,22.5
2018-11-10T08:10:43.263Z,22.5
2018-11-10T08:11:31.769Z,22.4
2018-11-10T08:12:22.274Z,22.4
2018-11-10T08:13:12.930Z,22.4
2018-11-10T08:14:03.075Z,22.4
2018-11-10T08:14:53.198Z,22.4
2018-11-10T08:15:42.375Z,22.4
2018-11-10T08:16:31.604Z,22.4
2018-11-10T08:17:22.471Z,22.3
2018-11-10T08:18:12.269Z,22.3
2018-11-10T08:19:02.476Z,22.3
2018-11-10T08:19:53.671Z,22.3
2018-11-10T08:20:43.663Z,22.3
2018-11-10T08:21:33.576Z,22.3
2018-11-10T08:22:23.521Z,22.3
2018-11-10T08:23:13.024Z,22.3
2018-11-10T08:24:03.672Z,22.2
2018-11-10T08:24:54.855Z,22.3
2018-11-10T08:25:43.111Z,22.2
2018-11-10T08:26:32.669Z,22.2
2018-11-10T08:27:23.069Z,22.2
2018-11-10T08:28:13.499Z,22.2
2018-11-10T08:29:03.831Z,22.2
2018-11-10T08:29:53.667Z,22.2
2018-11-10T08:30:43.611Z,22.2
2018-11-10T08:31:33.788Z,22.2
2018-11-10T08:32:24.180Z,22.2
2018-11-10T08:33:11.873Z,22.2
2018-11-10T08:34:03.046Z,22.2
2018-11-10T08:34:53.695Z,22.1
2018-11-10T08:35:43.935Z,22.2
2018-11-10T08:36:32.421Z,22.2
2018-11-10T08:37:23.818Z,22.1
2018-11-10T08:38:12.813Z,22.1
2018-11-10T08:39:03.927Z,22.1
2018-11-10T08:39:53.283Z,22.1
2018-11-10T08:40:43.523Z,22.1
2018-11-10T08:41:33.763Z,22.1
2018-11-10T08:42:25.133Z,22.1
2018-11-10T08:43:15.410Z,22.1
2018-11-10T08:44:04.056Z,22.1
2018-11-10T08:44:53.425Z,22.1
2018-11-10T08:45:45.250Z,22.1
2018-11-10T08:46:35.272Z,22.1
2018-11-10T08:47:23.855Z,22.1
2018-11-10T08:48:13.605Z,22.1
2018-11-10T08:49:05.632Z,22.1
2018-11-10T08:49:54.352Z,22.1
2018-11-10T08:50:44.662Z,22.1
2018-11-10T08:51:33.413Z,22.1
2018-11-10T08:52:24.215Z,22.1
2018-11-10T09:09:04.724Z,22
2018-11-10T09:09:55.370Z,22
2018-11-10T09:10:45.063Z,22
2018-11-10T09:11:33.376Z,21.9
2018-11-10T09:12:25.503Z,22
2018-11-10T09:13:14.729Z,21.9
2018-11-10T09:14:04.189Z,22
2018-11-10T09:14:55.878Z,21.9
2018-11-10T09:15:44.825Z,21.9
2018-11-10T09:16:35.173Z,22
2018-11-10T09:17:25.051Z,22
2018-11-10T09:18:14.694Z,21.9
2018-11-10T09:19:03.368Z,21.9
2018-11-10T09:19:55.745Z,21.9
2018-11-10T09:20:44.785Z,21.9
2018-11-10T09:21:36.441Z,21.9
2018-11-10T09:22:25.090Z,21.9
2018-11-10T09:23:14.090Z,21.9
2018-11-10T09:24:04.201Z,21.9
2018-11-10T09:24:56.075Z,21.9
2018-11-10T09:25:45.400Z,21.9
2018-11-10T09:26:34.642Z,21.9
2018-11-10T09:27:24.693Z,21.9
2018-11-10T09:28:15.013Z,21.9
2018-11-10T09:29:04.863Z,21.9
2018-11-10T09:29:54.260Z,21.9
2018-11-10T09:30:45.324Z,21.9
2018-11-10T09:31:35.434Z,21.9
2018-11-10T09:32:25.350Z,21.9
2018-11-10T09:33:15.864Z,21.9
2018-11-10T09:34:06.112Z,21.9
2018-11-10T09:34:55.792Z,21.9
2018-11-10T09:35:45.502Z,21.9
2018-11-10T09:36:37.485Z,21.9
2018-11-10T09:37:27.275Z,21.9
2018-11-10T09:38:16.050Z,21.9
2018-11-10T09:39:04.799Z,21.9
2018-11-10T09:39:56.088Z,21.9
2018-11-10T09:40:46.802Z,21.9
2018-11-10T09:41:36.656Z,21.9
2018-11-10T09:42:31.616Z,21.8
2018-11-10T09:43:16.246Z,21.9
2018-11-10T09:44:07.409Z,21.9
2018-11-10T09:44:57.004Z,21.8
2018-11-10T09:45:45.990Z,21.9
2018-11-10T09:46:38.494Z,21.9
2018-11-10T09:47:25.479Z,21.8
2018-11-10T09:48:15.793Z,21.9
2018-11-10T09:49:07.423Z,21.8
2018-11-10T09:49:58.165Z,21.8
2018-11-10T09:50:47.618Z,21.8
2018-11-10T09:51:36.853Z,21.8
2018-11-10T09:52:28.062Z,21.8
2018-11-10T09:53:17.618Z,21.8
2018-11-10T09:54:07.428Z,21.8
2018-11-10T09:54:58.206Z,21.8
2018-11-10T09:55:47.468Z,21.8
2018-11-10T09:56:37.848Z,21.8
2018-11-10T09:57:28.369Z,21.8
2018-11-10T09:58:17.733Z,21.8
2018-11-10T09:59:08.014Z,21.8
2018-11-10T09:59:58.590Z,21.8
2018-11-10T10:00:47.379Z,21.8
2018-11-10T10:01:42.033Z,21.8
2018-11-10T10:02:35.052Z,21.8
2018-11-10T10:03:16.498Z,21.7
2018-11-10T10:04:08.385Z,21.7
2018-11-10T10:04:57.565Z,21.7
2018-11-10T10:05:47.233Z,21.7
2018-11-10T10:06:38.553Z,21.7
2018-11-10T10:07:28.123Z,21.6
2018-11-10T10:08:16.816Z,21.6
2018-11-10T10:09:08.931Z,21.6
2018-11-10T10:09:59.736Z,21.6
2018-11-10T10:10:48.390Z,21.6
2018-11-10T10:11:39.118Z,21.6
2018-11-10T10:12:27.843Z,21.6
2018-11-10T10:13:19.618Z,21.6
2018-11-10T10:14:08.140Z,21.6
2018-11-10T10:14:58.073Z,21.6
2018-11-10T10:15:48.867Z,21.6
2018-11-10T10:16:41.048Z,21.6
2018-11-10T10:17:27.930Z,21.6
2018-11-10T10:18:18.362Z,21.6
2018-11-10T10:19:08.673Z,21.5
2018-11-10T10:19:59.012Z,21.5
2018-11-10T10:20:49.117Z,21.5
2018-11-10T10:21:40.343Z,21.5
2018-11-10T10:22:30.337Z,21.5
2018-11-10T10:23:16.787Z,21.5
2018-11-10T10:24:08.402Z,21.5
2018-11-10T10:24:58.294Z,21.4
2018-11-10T10:25:49.932Z,21.4
2018-11-10T10:26:40.201Z,21.4
2018-11-10T10:27:29.034Z,21.4
2018-11-10T10:28:19.809Z,21.4
2018-11-10T10:29:13.116Z,21.4
2018-11-10T10:30:00.912Z,21.4
2018-11-10T10:30:49.112Z,21.4
2018-11-10T10:31:39.829Z,21.4
2018-11-10T10:32:28.599Z,21.4
2018-11-10T10:33:20.023Z,21.4
2018-11-10T10:34:11.724Z,21.4
2018-11-10T10:35:02.599Z,21.4
2018-11-10T10:35:50.986Z,21.4
2018-11-10T10:36:39.464Z,21.4
2018-11-10T10:37:30.532Z,21.4
2018-11-10T10:38:20.131Z,21.4
2018-11-10T10:39:10.889Z,21.4
2018-11-10T10:40:00.961Z,21.3
2018-11-10T10:40:51.200Z,21.4
2018-11-10T10:41:40.694Z,21.4
2018-11-10T10:42:31.421Z,21.4
2018-11-10T10:43:21.153Z,21.4
2018-11-10T10:44:10.796Z,21.4
2018-11-10T10:45:01.046Z,21.4
2018-11-10T10:45:52.323Z,21.4
2018-11-10T10:46:40.387Z,21.4
2018-11-10T10:47:31.468Z,21.4
2018-11-10T10:48:20.098Z,21.4
2018-11-10T10:49:11.625Z,21.4
2018-11-10T10:50:01.977Z,21.4
2018-11-10T10:50:51.771Z,21.4
2018-11-10T10:51:41.478Z,21.4
2018-11-10T10:52:32.280Z,21.4
2018-11-10T10:53:21.435Z,21.4
2018-11-10T10:54:12.427Z,21.4
2018-11-10T10:55:02.536Z,21.4
2018-11-10T10:55:51.629Z,21.4
2018-11-10T10:56:43.265Z,21.4
2018-11-10T10:57:32.032Z,21.4
2018-11-10T10:58:22.525Z,21.4
2018-11-10T10:59:11.610Z,21.4
2018-11-10T11:00:01.520Z,21.3
2018-11-10T11:00:50.549Z,21.3
2018-11-10T11:01:43.105Z,21.3
2018-11-10T11:02:31.752Z,21.3
2018-11-10T11:03:23.292Z,21.3
2018-11-10T11:04:13.009Z,21.3
2018-11-10T11:05:01.767Z,21.3
2018-11-10T11:05:52.058Z,21.3
2018-11-10T11:06:42.920Z,21.3
2018-11-10T11:07:32.739Z,21.3
2018-11-10T11:08:22.712Z,21.3
2018-11-10T11:09:13.581Z,21.3
2018-11-10T11:10:03.367Z,21.3
2018-11-10T11:10:52.484Z,21.3
2018-11-10T11:11:41.972Z,21.3
2018-11-10T11:12:32.921Z,21.3
2018-11-10T11:13:23.387Z,21.3
2018-11-10T11:14:11.521Z,21.3
2018-11-10T11:15:04.668Z,21.3
2018-11-10T11:15:55.844Z,21.3
2018-11-10T11:16:42.816Z,21.3
2018-11-10T11:17:32.750Z,21.3
2018-11-10T11:18:22.401Z,21.3
2018-11-10T11:19:12.081Z,21.3
2018-11-10T11:20:03.609Z,21.3
2018-11-10T11:20:53.354Z,21.3
2018-11-10T11:21:43.764Z,21.3
2018-11-10T11:22:33.076Z,21.3
2018-11-10T11:23:24.361Z,21.3
2018-11-10T11:24:13.006Z,21.3
2018-11-10T11:25:02.389Z,21.3
2018-11-10T11:25:52.451Z,21.3
2018-11-10T11:26:43.031Z,21.3
2018-11-10T11:27:33.911Z,21.2
2018-11-10T11:28:23.361Z,21.2
2018-11-10T11:29:14.122Z,21.2
2018-11-10T11:34:13.963Z,21.1
2018-11-10T11:35:04.635Z,21.1
2018-11-10T11:35:53.765Z,21.1
2018-11-10T11:39:13.958Z,21.1
2018-11-10T11:40:03.403Z,21.1
2018-11-10T11:40:54.218Z,21.1
2018-11-10T11:41:46.140Z,21.1
2018-11-10T11:42:35.445Z,21.1
2018-11-10T11:44:13.515Z,21.1
2018-11-10T11:45:04.125Z,21.1
2018-11-10T11:45:54.178Z,21.1
2018-11-10T11:46:45.833Z,21.1
2018-11-10T11:47:36.187Z,21.1
2018-11-10T11:48:25.438Z,21.1
2018-11-10T11:49:15.627Z,21.1
2018-11-10T11:50:04.939Z,21.1
2018-11-10T11:50:55.157Z,21.1
2018-11-10T11:51:44.989Z,21.1
2018-11-10T11:52:36.592Z,21.1
2018-11-10T11:53:27.044Z,21.1
2018-11-10T11:54:14.607Z,21.1
2018-11-10T11:55:05.509Z,21.1
2018-11-10T11:55:54.909Z,21
2018-11-10T11:56:46.087Z,21
2018-11-10T11:57:37.620Z,21.1
2018-11-10T11:58:29.565Z,21.1
2018-11-10T11:59:17.061Z,21.1
2018-11-10T12:00:06.549Z,21
2018-11-10T12:00:57.231Z,21
2018-11-10T12:01:46.244Z,21.1
2018-11-10T12:02:36.162Z,21
2018-11-10T12:03:26.160Z,21.1
2018-11-10T12:04:17.542Z,21
2018-11-10T12:05:06.199Z,21
2018-11-10T12:05:56.236Z,21.1
2018-11-10T12:06:46.100Z,21.1
2018-11-10T12:07:37.570Z,21
2018-11-10T12:08:26.066Z,21
2018-11-10T12:09:16.869Z,21.1
2018-11-10T12:10:07.656Z,21.1
2018-11-10T12:10:57.366Z,21
2018-11-10T12:11:46.881Z,21.1
2018-11-10T12:12:38.454Z,21.1
2018-11-10T12:13:27.790Z,21.1
2018-11-10T12:14:16.241Z,21.1
2018-11-10T12:15:07.648Z,21
2018-11-10T12:15:57.927Z,21
2018-11-10T12:16:49.290Z,21
2018-11-10T12:17:37.712Z,21